Fulton, Iowa
Current Conditions -  °F | °C
As of 3:53 AM on Friday 31 Oct 2014 (Local Time) from KDBQ Reporting Station
Broken Clouds Broken Clouds  
Wind Chill: 25°   Ceiling: 4700
Heat Index: 36°   Visibility: 10mi
Dew Point: 20°   Wind: 22mph
Humidity: 52%   Direction: 360°N
Pressure: 30.19"   Gusts: 30mph
Location:  42.12°N, 90.7234°W
Report Text: KDBQ 310853Z AUTO 36019G26KT 10SM BKN047 02/M07 A3019 RMK AO2 PK WND 34036/0806 SLP230 T00221067 53019
Loading
Personal Weather Stations






























Interactive Weather Map
Tropical Storm Tracking
New forecast layout! Learn more

10-Day Weather Forecast

Advertisements
Track Severe Weather on mobile